Time;durP1;ratioP1;P1;durP2;ratioP2;P2;SDS_P1;SDS_P2;PMS_P1;PMS_P2;Temp;Humidity;BMP_temperature;BMP_pressure;BME280_temperature;BME280_humidity;BME280_pressure;Samples;Min_cycle;Max_cycle;Signal;HPM_P1;HPM_P2
2023/03/07 00:00:18;;;;;;;23.17;12.27;;;;;;;;;;5059707;28;20226;-90
2023/03/07 00:02:50;;;;;;;21.43;13.53;;;;;;;;;;5054457;28;20702;-89
2023/03/07 00:05:17;;;;;;;23.47;15.60;;;;;;;;;;5055945;28;20226;-91
2023/03/07 00:07:44;;;;;;;14.93;10.27;;;;;;;;;;5054349;28;20235;-90
2023/03/07 00:10:12;;;;;;;20.97;14.97;;;;;;;;;;5054996;28;20616;-90
2023/03/07 00:12:39;;;;;;;24.47;14.73;;;;;;;;;;5054659;28;20241;-89
2023/03/07 00:15:07;;;;;;;26.43;16.67;;;;;;;;;;5054657;28;20226;-88
2023/03/07 00:17:35;;;;;;;13.40;9.40;;;;;;;;;;5054710;28;20233;-89
2023/03/07 00:20:06;;;;;;;24.93;15.97;;;;;;;;;;5054969;28;20253;-89
2023/03/07 00:22:33;;;;;;;17.23;11.80;;;;;;;;;;5054279;28;20750;-89
2023/03/07 00:25:00;;;;;;;13.57;10.10;;;;;;;;;;5054793;28;20570;-88
2023/03/07 00:27:27;;;;;;;24.80;16.03;;;;;;;;;;5053897;28;20196;-89
2023/03/07 00:29:54;;;;;;;15.43;9.13;;;;;;;;;;5054690;28;20206;-89
2023/03/07 00:32:21;;;;;;;16.30;11.00;;;;;;;;;;5053909;28;20211;-89
2023/03/07 00:34:48;;;;;;;20.37;12.90;;;;;;;;;;5055089;28;20218;-89
2023/03/07 00:37:16;;;;;;;20.03;11.37;;;;;;;;;;5053785;28;20210;-88
2023/03/07 00:39:43;;;;;;;18.30;11.40;;;;;;;;;;5054718;28;20229;-90
2023/03/07 00:42:11;;;;;;;20.97;13.50;;;;;;;;;;5054244;28;20217;-89
2023/03/07 00:44:38;;;;;;;23.87;13.90;;;;;;;;;;5053995;28;20234;-89
2023/03/07 00:47:05;;;;;;;27.30;16.40;;;;;;;;;;5054732;28;20205;-89
2023/03/07 00:49:32;;;;;;;21.50;11.97;;;;;;;;;;5053520;28;20232;-88
2023/03/07 00:51:59;;;;;;;21.67;14.20;;;;;;;;;;5053654;28;20208;-89
2023/03/07 00:54:27;;;;;;;18.47;12.57;;;;;;;;;;5053621;28;20249;-89
2023/03/07 00:56:54;;;;;;;22.37;12.80;;;;;;;;;;5053858;28;20565;-89
2023/03/07 00:59:21;;;;;;;26.97;17.53;;;;;;;;;;5053437;28;20237;-88
2023/03/07 01:01:48;;;;;;;22.23;13.57;;;;;;;;;;5054007;28;20213;-89
2023/03/07 01:04:15;;;;;;;26.80;14.20;;;;;;;;;;5053078;28;20237;-89
2023/03/07 01:06:42;;;;;;;23.57;14.37;;;;;;;;;;5054201;28;20225;-88
2023/03/07 01:09:09;;;;;;;25.57;14.83;;;;;;;;;;5053563;28;20226;-88
2023/03/07 01:11:38;;;;;;;17.70;9.93;;;;;;;;;;5053909;28;20198;-89
2023/03/07 01:14:06;;;;;;;16.60;9.60;;;;;;;;;;5053322;28;20231;-89
2023/03/07 01:16:34;;;;;;;18.33;11.87;;;;;;;;;;5053984;28;20214;-88
2023/03/07 01:19:02;;;;;;;22.10;13.37;;;;;;;;;;5053419;28;20237;-89
2023/03/07 01:21:30;;;;;;;23.80;14.10;;;;;;;;;;5053742;28;20206;-89
2023/03/07 01:23:58;;;;;;;26.50;15.30;;;;;;;;;;5053617;28;20237;-90
2023/03/07 01:26:26;;;;;;;24.77;15.60;;;;;;;;;;5054106;28;20217;-89
2023/03/07 01:28:55;;;;;;;21.77;13.77;;;;;;;;;;5053774;28;20237;-89
2023/03/07 01:31:22;;;;;;;20.53;12.67;;;;;;;;;;5053901;28;20233;-89
2023/03/07 01:33:50;;;;;;;27.13;16.83;;;;;;;;;;5053467;28;20241;-89
2023/03/07 01:36:18;;;;;;;21.40;13.83;;;;;;;;;;5054364;28;20210;-89
2023/03/07 01:38:45;;;;;;;25.47;15.07;;;;;;;;;;5053984;28;20233;-88
2023/03/07 01:41:12;;;;;;;24.17;13.93;;;;;;;;;;5069133;28;20226;-87
2023/03/07 01:43:40;;;;;;;18.90;12.33;;;;;;;;;;5056917;28;20709;-89
2023/03/07 01:46:25;;;;;;;22.27;14.70;;;;;;;;;;5053342;28;20205;-89
2023/03/07 01:48:55;;;;;;;24.60;16.33;;;;;;;;;;5053001;28;20260;-89
2023/03/07 01:51:22;;;;;;;23.20;14.33;;;;;;;;;;5053423;28;20210;-89
2023/03/07 01:53:50;;;;;;;26.90;15.53;;;;;;;;;;5052868;28;20230;-89
2023/03/07 01:56:18;;;;;;;30.10;17.77;;;;;;;;;;5053742;28;20210;-89
2023/03/07 01:58:46;;;;;;;25.67;15.73;;;;;;;;;;5051722;28;20736;-89
2023/03/07 02:01:14;;;;;;;25.03;16.10;;;;;;;;;;5039145;28;20249;-88
2023/03/07 02:03:44;;;;;;;23.70;14.77;;;;;;;;;;5051317;28;20233;-88
2023/03/07 02:06:13;;;;;;;18.27;10.53;;;;;;;;;;5051223;28;20198;-88
2023/03/07 02:08:40;;;;;;;24.23;16.47;;;;;;;;;;5052295;28;20226;-88
2023/03/07 03:39:49;;;;;;;19.37;12.63;;;;;;;;;;5052537;28;20224;-88
2023/03/07 03:42:16;;;;;;;20.13;13.70;;;;;;;;;;5053789;28;20228;-88
2023/03/07 03:44:43;;;;;;;9.60;7.83;;;;;;;;;;5054708;28;20249;-88
2023/03/07 03:47:11;;;;;;;14.53;10.03;;;;;;;;;;5054756;28;20202;-88
2023/03/07 03:49:38;;;;;;;13.83;9.03;;;;;;;;;;5054524;28;20216;-88
2023/03/07 03:52:05;;;;;;;8.10;7.03;;;;;;;;;;5054092;28;20205;-89
2023/03/07 03:54:32;;;;;;;16.23;11.67;;;;;;;;;;5054001;28;20249;-89
2023/03/07 03:57:01;;;;;;;15.07;11.07;;;;;;;;;;5054520;28;20285;-87
2023/03/07 03:59:28;;;;;;;15.83;8.83;;;;;;;;;;5053691;28;20245;-88
2023/03/07 04:01:55;;;;;;;14.97;11.23;;;;;;;;;;5054072;28;20194;-88
2023/03/07 04:04:22;;;;;;;12.53;9.23;;;;;;;;;;5054125;28;20234;-88
2023/03/07 04:06:49;;;;;;;15.73;9.10;;;;;;;;;;5054576;28;20207;-88
2023/03/07 04:09:16;;;;;;;19.10;11.73;;;;;;;;;;5053706;28;20235;-88
2023/03/07 04:11:43;;;;;;;15.33;10.57;;;;;;;;;;5054033;28;20686;-88
2023/03/07 04:14:12;;;;;;;20.60;12.93;;;;;;;;;;5053230;28;20237;-88
2023/03/07 04:16:39;;;;;;;25.50;15.97;;;;;;;;;;5054201;28;20587;-88
2023/03/07 04:19:07;;;;;;;14.43;11.43;;;;;;;;;;5053682;28;20601;-89
2023/03/07 04:21:34;;;;;;;21.23;14.53;;;;;;;;;;5053651;28;20276;-89
2023/03/07 04:24:01;;;;;;;9.07;6.93;;;;;;;;;;5052447;28;20714;-88
2023/03/07 04:26:28;;;;;;;21.07;12.20;;;;;;;;;;5052963;28;20203;-88
2023/03/07 04:28:55;;;;;;;14.70;10.57;;;;;;;;;;5053052;28;20228;-89
2023/03/07 04:31:25;;;;;;;17.00;10.97;;;;;;;;;;5053536;28;20688;-89
2023/03/07 04:33:53;;;;;;;17.87;11.47;;;;;;;;;;5053696;28;20237;-88
2023/03/07 04:36:21;;;;;;;18.60;12.23;;;;;;;;;;5054088;28;20208;-89
2023/03/07 04:38:48;;;;;;;14.37;10.63;;;;;;;;;;5053302;28;20234;-89
2023/03/07 04:41:16;;;;;;;11.20;8.33;;;;;;;;;;5053668;28;20557;-89
2023/03/07 04:43:43;;;;;;;15.03;10.47;;;;;;;;;;5052679;28;20240;-88
2023/03/07 04:46:11;;;;;;;12.70;9.60;;;;;;;;;;5052873;28;20198;-89
2023/03/07 04:48:40;;;;;;;15.63;12.00;;;;;;;;;;5052650;28;20243;-89
2023/03/07 04:51:07;;;;;;;12.13;8.13;;;;;;;;;;5053671;28;20213;-89
2023/03/07 04:53:34;;;;;;;20.40;14.60;;;;;;;;;;5052579;28;20225;-89
2023/03/07 04:56:02;;;;;;;14.40;9.63;;;;;;;;;;5053268;28;20231;-90
2023/03/07 04:58:29;;;;;;;14.57;11.27;;;;;;;;;;5053123;28;20238;-89
2023/03/07 05:00:57;;;;;;;17.60;11.57;;;;;;;;;;5053037;28;20217;-89
2023/03/07 05:03:25;;;;;;;16.50;10.77;;;;;;;;;;5052396;28;20691;-89
2023/03/07 05:05:54;;;;;;;15.90;10.97;;;;;;;;;;5053396;28;20209;-89
2023/03/07 05:08:21;;;;;;;16.20;10.00;;;;;;;;;;5052533;28;20234;-89
2023/03/07 05:10:48;;;;;;;13.70;8.50;;;;;;;;;;5052969;28;20736;-89
2023/03/07 05:13:15;;;;;;;17.37;11.93;;;;;;;;;;5053338;28;20224;-89
2023/03/07 05:15:42;;;;;;;22.17;13.60;;;;;;;;;;5052486;28;20214;-89
2023/03/07 05:18:10;;;;;;;19.57;12.60;;;;;;;;;;5052698;28;20229;-89
2023/03/07 05:20:37;;;;;;;24.87;15.70;;;;;;;;;;5053843;28;20218;-89
2023/03/07 05:23:05;;;;;;;12.07;9.27;;;;;;;;;;5052356;28;20702;-89
2023/03/07 05:25:32;;;;;;;24.17;15.37;;;;;;;;;;5053011;28;20194;-90
2023/03/07 05:27:59;;;;;;;17.57;12.37;;;;;;;;;;5052567;28;20720;-89
2023/03/07 05:30:26;;;;;;;16.20;11.17;;;;;;;;;;5052632;28;20202;-89
2023/03/07 05:32:53;;;;;;;20.90;14.80;;;;;;;;;;5052102;28;20238;-88
2023/03/07 05:35:23;;;;;;;9.50;7.13;;;;;;;;;;5055107;28;20304;-89
2023/03/07 05:37:50;;;;;;;22.63;14.07;;;;;;;;;;5054153;28;20261;-89
2023/03/07 05:40:19;;;;;;;22.60;16.10;;;;;;;;;;5054964;28;20452;-90
2023/03/07 05:42:46;;;;;;;15.87;12.10;;;;;;;;;;5054603;28;20225;-89
2023/03/07 05:45:15;;;;;;;16.93;10.90;;;;;;;;;;5054473;28;20222;-89
2023/03/07 05:47:42;;;;;;;21.47;13.70;;;;;;;;;;5053251;28;20233;-90
2023/03/07 05:50:10;;;;;;;13.60;9.20;;;;;;;;;;5054697;28;20202;-89
2023/03/07 05:52:38;;;;;;;22.23;13.17;;;;;;;;;;5068111;28;20229;-88
2023/03/07 05:55:06;;;;;;;18.00;12.27;;;;;;;;;;5059314;28;20246;-89
2023/03/07 05:57:34;;;;;;;15.77;11.83;;;;;;;;;;5053862;28;20242;-88
2023/03/07 06:00:04;;;;;;;19.93;14.57;;;;;;;;;;5058581;28;20209;-89
2023/03/07 06:02:32;;;;;;;22.83;13.30;;;;;;;;;;5059109;28;20253;-89
2023/03/07 06:04:59;;;;;;;21.03;15.80;;;;;;;;;;5059233;28;20238;-89
2023/03/07 06:07:26;;;;;;;18.67;12.77;;;;;;;;;;5057489;28;20202;-88
2023/03/07 06:09:53;;;;;;;19.17;14.93;;;;;;;;;;5056838;28;20635;-87
2023/03/07 06:12:20;;;;;;;13.70;9.77;;;;;;;;;;5056318;28;20694;-88
2023/03/07 06:14:48;;;;;;;6.37;5.60;;;;;;;;;;5056339;28;20244;-87
2023/03/07 06:17:15;;;;;;;18.83;13.37;;;;;;;;;;5055661;28;20210;-88
2023/03/07 06:19:42;;;;;;;15.50;11.30;;;;;;;;;;5056386;28;20209;-88
2023/03/07 06:22:09;;;;;;;20.37;12.60;;;;;;;;;;5054762;28;20720;-86
2023/03/07 06:24:36;;;;;;;17.17;12.63;;;;;;;;;;5056362;28;20222;-88
2023/03/07 06:27:03;;;;;;;34.60;9.47;;;;;;;;;;5055970;28;20256;-87
2023/03/07 06:29:30;;;;;;;18.27;12.87;;;;;;;;;;5055048;28;20242;-87
2023/03/07 06:31:59;;;;;;;15.57;10.67;;;;;;;;;;5055952;28;20206;-88
2023/03/07 06:34:27;;;;;;;20.90;14.10;;;;;;;;;;5055165;28;20233;-88
2023/03/07 06:36:54;;;;;;;20.07;14.60;;;;;;;;;;5055912;28;20206;-88
2023/03/07 06:39:21;;;;;;;13.73;8.37;;;;;;;;;;5055183;28;20231;-89
2023/03/07 06:41:48;;;;;;;17.20;11.87;;;;;;;;;;5055641;28;20727;-89
2023/03/07 06:44:15;;;;;;;16.47;10.03;;;;;;;;;;5055230;28;20719;-88
2023/03/07 06:46:42;;;;;;;18.60;12.60;;;;;;;;;;5056068;28;20213;-88
2023/03/07 06:49:11;;;;;;;19.17;11.83;;;;;;;;;;5055259;28;20234;-88
2023/03/07 06:51:38;;;;;;;17.20;12.33;;;;;;;;;;5055304;28;20202;-88
2023/03/07 06:54:05;;;;;;;13.73;9.30;;;;;;;;;;5055518;28;20237;-88
2023/03/07 06:56:33;;;;;;;19.90;13.03;;;;;;;;;;5055200;28;20210;-88
2023/03/07 06:59:00;;;;;;;17.60;10.47;;;;;;;;;;5055290;28;20241;-88
2023/03/07 07:01:27;;;;;;;12.60;8.70;;;;;;;;;;5048888;28;20226;-88
2023/03/07 07:03:54;;;;;;;13.40;8.77;;;;;;;;;;5051761;28;20245;-88
2023/03/07 07:06:23;;;;;;;12.73;8.43;;;;;;;;;;5055769;28;20231;-88
2023/03/07 07:08:50;;;;;;;13.60;9.23;;;;;;;;;;5054629;28;20228;-88
2023/03/07 07:11:17;;;;;;;10.57;6.90;;;;;;;;;;5054873;28;20210;-87
2023/03/07 07:13:45;;;;;;;16.17;10.80;;;;;;;;;;5053814;28;20238;-88
2023/03/07 07:16:12;;;;;;;14.73;10.20;;;;;;;;;;5054639;28;20212;-89
2023/03/07 07:18:39;;;;;;;17.03;9.73;;;;;;;;;;5054477;28;20244;-87
2023/03/07 07:21:06;;;;;;;12.60;9.20;;;;;;;;;;5054829;28;20230;-89
2023/03/07 07:23:34;;;;;;;10.23;8.17;;;;;;;;;;5054570;28;20240;-89
2023/03/07 07:26:02;;;;;;;17.13;12.03;;;;;;;;;;5054541;28;20206;-90
2023/03/07 07:28:30;;;;;;;11.43;7.87;;;;;;;;;;5082047;22;20233;-88
2023/03/07 07:30:57;;;;;;;15.17;10.53;;;;;;;;;;5082867;28;20205;-89
2023/03/07 07:33:24;;;;;;;16.77;11.03;;;;;;;;;;5072578;28;20233;-90
2023/03/07 07:35:51;;;;;;;15.40;10.80;;;;;;;;;;5074064;28;20197;-90
2023/03/07 07:38:18;;;;;;;18.40;11.90;;;;;;;;;;5073165;28;20250;-89
2023/03/07 07:40:47;;;;;;;17.03;11.03;;;;;;;;;;5073435;28;20228;-89
2023/03/07 07:43:15;;;;;;;13.10;8.03;;;;;;;;;;5073047;28;20234;-89
2023/03/07 07:45:42;;;;;;;12.57;8.80;;;;;;;;;;5073523;28;20286;-90
2023/03/07 07:48:09;;;;;;;13.93;8.10;;;;;;;;;;5072561;28;20237;-89
2023/03/07 07:50:36;;;;;;;16.77;11.37;;;;;;;;;;5073438;28;20210;-88
2023/03/07 07:53:03;;;;;;;16.00;9.73;;;;;;;;;;5072991;28;20229;-89
2023/03/07 07:55:30;;;;;;;8.93;7.03;;;;;;;;;;5073468;28;20200;-89
2023/03/07 07:57:59;;;;;;;10.90;9.47;;;;;;;;;;5072542;28;20647;-88
2023/03/07 08:00:26;;;;;;;6.47;5.83;;;;;;;;;;5073726;28;20208;-88
2023/03/07 08:02:53;;;;;;;15.47;10.63;;;;;;;;;;5072540;28;20238;-88
2023/03/07 08:05:21;;;;;;;12.73;8.93;;;;;;;;;;5072873;28;20209;-89
2023/03/07 08:07:49;;;;;;;12.53;9.30;;;;;;;;;;5072382;28;20655;-89
2023/03/07 08:10:16;;;;;;;13.53;9.97;;;;;;;;;;5073052;28;20691;-89
2023/03/07 08:12:43;;;;;;;9.47;6.93;;;;;;;;;;5073310;28;20228;-88
2023/03/07 08:15:12;;;;;;;10.60;8.20;;;;;;;;;;5072793;28;20210;-88
2023/03/07 08:17:39;;;;;;;10.93;8.10;;;;;;;;;;5071926;28;20242;-88
2023/03/07 08:20:08;;;;;;;10.23;6.53;;;;;;;;;;5072840;28;20567;-88
2023/03/07 08:22:36;;;;;;;13.63;8.93;;;;;;;;;;5071169;28;20357;-89
2023/03/07 08:25:03;;;;;;;13.47;8.50;;;;;;;;;;5072412;28;20206;-89
2023/03/07 08:27:30;;;;;;;10.93;7.77;;;;;;;;;;5072081;28;20255;-89
2023/03/07 08:29:57;;;;;;;14.03;9.77;;;;;;;;;;5072660;28;20217;-86
2023/03/07 08:32:26;;;;;;;12.53;8.87;;;;;;;;;;5071848;28;20208;-89
2023/03/07 08:34:53;;;;;;;7.97;6.73;;;;;;;;;;5072662;28;20199;-90
2023/03/07 08:37:20;;;;;;;13.60;9.57;;;;;;;;;;5071927;28;20209;-87
2023/03/07 08:39:47;;;;;;;11.17;9.53;;;;;;;;;;5072183;28;20228;-87
2023/03/07 08:42:14;;;;;;;11.00;8.37;;;;;;;;;;5071802;28;20229;-87
2023/03/07 08:44:41;;;;;;;14.23;8.10;;;;;;;;;;5072558;28;20215;-90
2023/03/07 08:47:10;;;;;;;9.23;6.97;;;;;;;;;;5073271;28;20209;-90
2023/03/07 08:49:38;;;;;;;9.03;7.07;;;;;;;;;;5072154;28;20232;-88
2023/03/07 08:52:06;;;;;;;13.27;8.70;;;;;;;;;;5072214;28;20215;-88
2023/03/07 08:54:33;;;;;;;8.77;7.77;;;;;;;;;;5071391;28;20232;-88
2023/03/07 08:57:00;;;;;;;11.40;9.23;;;;;;;;;;5072254;28;20240;-88
2023/03/07 08:59:27;;;;;;;10.57;8.47;;;;;;;;;;5065151;28;20231;-88
2023/03/07 09:01:56;;;;;;;10.20;7.60;;;;;;;;;;5072002;28;20225;-88
2023/03/07 09:04:24;;;;;;;10.53;7.30;;;;;;;;;;5072007;28;20240;-91
2023/03/07 09:06:52;;;;;;;11.53;8.47;;;;;;;;;;5072205;28;20211;-87
2023/03/07 09:09:19;;;;;;;10.00;7.63;;;;;;;;;;5070626;28;20228;-87
2023/03/07 09:11:46;;;;;;;8.93;8.07;;;;;;;;;;5071739;28;20204;-86
2023/03/07 09:14:14;;;;;;;11.70;7.77;;;;;;;;;;5070429;28;20233;-88
2023/03/07 09:16:41;;;;;;;10.03;7.83;;;;;;;;;;5071268;28;20685;-91
2023/03/07 09:19:08;;;;;;;13.90;8.27;;;;;;;;;;5071514;28;20237;-92
2023/03/07 09:21:35;;;;;;;8.33;7.17;;;;;;;;;;5072464;28;20228;-90
2023/03/07 09:24:08;;;;;;;10.13;6.93;;;;;;;;;;5071672;28;20247;-93
2023/03/07 09:26:35;;;;;;;12.73;7.13;;;;;;;;;;5072020;28;20213;-90
2023/03/07 09:29:03;;;;;;;9.13;7.93;;;;;;;;;;5071135;28;20240;-90
2023/03/07 09:31:30;;;;;;;10.10;6.77;;;;;;;;;;5071540;28;20224;-89
2023/03/07 09:33:57;;;;;;;8.93;7.00;;;;;;;;;;5074730;28;20244;-91
2023/03/07 09:36:24;;;;;;;9.17;6.80;;;;;;;;;;5075768;28;20684;-89
2023/03/07 09:38:51;;;;;;;9.17;8.07;;;;;;;;;;5075313;28;20264;-92
2023/03/07 09:41:32;;;;;;;6.40;5.10;;;;;;;;;;5075606;28;20229;-90
2023/03/07 09:44:04;;;;;;;8.63;7.13;;;;;;;;;;5076593;28;20231;-90
2023/03/07 09:46:38;;;;;;;8.93;7.20;;;;;;;;;;5075877;28;20224;-90
2023/03/07 09:49:15;;;;;;;7.53;5.80;;;;;;;;;;5075188;28;20232;-91
2023/03/07 09:51:43;;;;;;;10.30;6.90;;;;;;;;;;5075519;28;20197;-91
2023/03/07 09:54:12;;;;;;;9.27;7.03;;;;;;;;;;5074898;28;20256;-90
2023/03/07 09:56:43;;;;;;;7.30;6.37;;;;;;;;;;5075365;28;20209;-89
2023/03/07 09:59:14;;;;;;;6.07;5.47;;;;;;;;;;5074880;28;20242;-92
2023/03/07 10:01:43;;;;;;;10.50;7.17;;;;;;;;;;5074784;28;20236;-87
2023/03/07 10:04:15;;;;;;;8.07;6.40;;;;;;;;;;5074853;28;20248;-91
2023/03/07 10:06:43;;;;;;;9.53;6.47;;;;;;;;;;5075692;28;20185;-92
2023/03/07 10:09:13;;;;;;;9.73;6.67;;;;;;;;;;5078498;28;20239;-91
2023/03/07 10:11:53;;;;;;;9.47;6.40;;;;;;;;;;5079614;28;20251;-91
2023/03/07 10:14:36;;;;;;;5.73;4.77;;;;;;;;;;5074677;28;20645;-90
2023/03/07 10:17:07;;;;;;;6.57;5.60;;;;;;;;;;5074971;28;20665;-89
2023/03/07 10:19:38;;;;;;;7.20;5.83;;;;;;;;;;5074246;28;20244;-87
2023/03/07 10:22:10;;;;;;;7.07;5.70;;;;;;;;;;5077529;28;20213;-88
2023/03/07 10:24:47;;;;;;;6.13;4.90;;;;;;;;;;5088266;28;20245;-91
2023/03/07 10:27:16;;;;;;;9.17;5.77;;;;;;;;;;5089001;28;20199;-90
2023/03/07 10:29:46;;;;;;;6.80;5.60;;;;;;;;;;5081763;28;20327;-90
2023/03/07 10:32:28;;;;;;;6.20;4.90;;;;;;;;;;5073548;28;20201;-90
2023/03/07 10:34:58;;;;;;;7.47;5.10;;;;;;;;;;5074454;28;20193;-89
2023/03/07 10:37:29;;;;;;;7.47;4.93;;;;;;;;;;5075216;28;20244;-90
2023/03/07 10:40:00;;;;;;;7.37;5.53;;;;;;;;;;5074449;28;20626;-90
2023/03/07 10:42:32;;;;;;;7.37;5.40;;;;;;;;;;5073633;28;20229;-89
2023/03/07 10:44:59;;;;;;;6.87;5.67;;;;;;;;;;5073941;28;20208;-90
2023/03/07 10:47:27;;;;;;;5.90;5.13;;;;;;;;;;5074234;28;20217;-92
2023/03/07 10:49:57;;;;;;;5.23;4.60;;;;;;;;;;5075400;28;20201;-89
2023/03/07 10:52:33;;;;;;;6.13;5.30;;;;;;;;;;5075287;28;20210;-89
2023/03/07 10:55:33;;;;;;;8.17;5.53;;;;;;;;;;5075961;28;20197;-90
2023/03/07 10:58:14;;;;;;;4.80;4.40;;;;;;;;;;4992569;28;20243;-87
2023/03/07 11:00:43;;;;;;;7.33;5.63;;;;;;;;;;4992711;28;20231;-87
2023/03/07 11:03:22;;;;;;;6.47;5.23;;;;;;;;;;5036897;28;20335;-87
2023/03/07 11:05:50;;;;;;;5.80;4.90;;;;;;;;;;5074430;28;20537;-88
2023/03/07 11:08:27;;;;;;;8.67;5.70;;;;;;;;;;5073685;28;20246;-90
2023/03/07 11:10:54;;;;;;;8.07;4.93;;;;;;;;;;5079648;28;20666;-89
2023/03/07 11:13:23;;;;;;;8.03;4.97;;;;;;;;;;5073640;28;20736;-90
2023/03/07 11:15:51;;;;;;;6.93;5.27;;;;;;;;;;5074077;28;20209;-87
2023/03/07 11:18:29;;;;;;;5.27;4.77;;;;;;;;;;5073044;28;20708;-91
2023/03/07 11:20:57;;;;;;;5.37;4.63;;;;;;;;;;5074778;28;20209;-88
2023/03/07 11:23:25;;;;;;;6.10;4.60;;;;;;;;;;5073972;28;20248;-87
2023/03/07 11:25:54;;;;;;;4.00;3.37;;;;;;;;;;5074184;28;20197;-90
2023/03/07 11:28:27;;;;;;;5.50;4.93;;;;;;;;;;5073506;28;20237;-89
2023/03/07 11:31:00;;;;;;;5.23;4.60;;;;;;;;;;5074181;28;20190;-89
2023/03/07 11:33:38;;;;;;;6.77;4.90;;;;;;;;;;5073646;28;20240;-88
2023/03/07 11:36:07;;;;;;;6.17;4.90;;;;;;;;;;5074444;28;20281;-90
2023/03/07 11:38:42;;;;;;;6.77;4.23;;;;;;;;;;5073936;28;20275;-91
2023/03/07 11:41:13;;;;;;;5.37;4.77;;;;;;;;;;5073805;28;20736;-87
2023/03/07 11:43:47;;;;;;;4.40;4.00;;;;;;;;;;5073117;28;20247;-90
2023/03/07 11:46:21;;;;;;;5.40;4.70;;;;;;;;;;5074190;28;20262;-88
2023/03/07 11:48:53;;;;;;;7.73;4.97;;;;;;;;;;5073356;28;20236;-90
2023/03/07 11:51:32;;;;;;;4.93;4.37;;;;;;;;;;5073894;28;20601;-88
2023/03/07 11:54:04;;;;;;;7.13;3.30;;;;;;;;;;5089639;28;20307;-89
2023/03/07 11:56:34;;;;;;;4.33;3.93;;;;;;;;;;5092816;28;20246;-88
2023/03/07 11:59:20;;;;;;;5.50;4.70;;;;;;;;;;5093308;28;20319;-89
2023/03/07 12:01:54;;;;;;;6.07;5.10;;;;;;;;;;5087214;28;20220;-86
2023/03/07 12:04:43;;;;;;;6.50;4.63;;;;;;;;;;5072566;28;20272;-88
2023/03/07 12:07:20;;;;;;;6.57;5.07;;;;;;;;;;5046610;28;20209;-91
2023/03/07 12:09:51;;;;;;;6.10;4.87;;;;;;;;;;5073865;28;20229;-87
2023/03/07 12:12:27;;;;;;;6.93;4.57;;;;;;;;;;5072260;28;20227;-88
2023/03/07 12:14:59;;;;;;;5.07;4.30;;;;;;;;;;5073918;28;20204;-90
2023/03/07 12:17:36;;;;;;;5.73;4.37;;;;;;;;;;5072686;28;20216;-89
2023/03/07 12:20:11;;;;;;;4.20;3.27;;;;;;;;;;5073754;28;20252;-89
2023/03/07 12:22:41;;;;;;;4.87;4.27;;;;;;;;;;5072591;28;20235;-90
2023/03/07 12:25:21;;;;;;;6.50;5.00;;;;;;;;;;5073340;28;20209;-89
2023/03/07 12:27:51;;;;;;;8.27;5.43;;;;;;;;;;5072810;28;20243;-89
2023/03/07 12:30:19;;;;;;;5.77;4.33;;;;;;;;;;5073124;28;20190;-90
2023/03/07 12:32:48;;;;;;;6.60;4.97;;;;;;;;;;5072627;28;20236;-88
2023/03/07 12:35:18;;;;;;;6.60;5.03;;;;;;;;;;5073170;28;20214;-89
2023/03/07 12:37:48;;;;;;;5.20;4.70;;;;;;;;;;5071987;28;20312;-87
2023/03/07 12:40:19;;;;;;;6.97;5.70;;;;;;;;;;5072877;28;20202;-86
2023/03/07 12:42:52;;;;;;;7.47;5.33;;;;;;;;;;5071743;28;20229;-87
2023/03/07 12:45:20;;;;;;;6.83;5.20;;;;;;;;;;5072396;28;20213;-88
2023/03/07 12:47:54;;;;;;;6.83;5.57;;;;;;;;;;5071778;28;20225;-88
2023/03/07 12:50:24;;;;;;;5.30;4.80;;;;;;;;;;5072424;28;20197;-88
2023/03/07 12:52:53;;;;;;;6.13;5.00;;;;;;;;;;5071659;28;20225;-88
2023/03/07 12:55:23;;;;;;;5.53;4.37;;;;;;;;;;5072578;28;20212;-88
2023/03/07 12:57:54;;;;;;;7.27;4.97;;;;;;;;;;5071922;28;20315;-88
2023/03/07 13:00:21;;;;;;;6.00;4.53;;;;;;;;;;5071839;28;20194;-87
2023/03/07 13:02:57;;;;;;;5.10;4.60;;;;;;;;;;5071416;28;20236;-88
2023/03/07 13:05:25;;;;;;;8.23;5.70;;;;;;;;;;5072074;28;20208;-89
2023/03/07 13:07:52;;;;;;;5.90;4.97;;;;;;;;;;5072718;28;20233;-89
2023/03/07 13:10:20;;;;;;;6.00;5.40;;;;;;;;;;5073832;28;20220;-87
2023/03/07 13:12:48;;;;;;;7.93;5.70;;;;;;;;;;5072696;28;20224;-88
2023/03/07 13:15:42;;;;;;;7.03;5.37;;;;;;;;;;5072725;28;20205;-89
2023/03/07 13:18:26;;;;;;;8.53;6.10;;;;;;;;;;5072206;28;20312;-90
2023/03/07 13:21:13;;;;;;;10.63;7.70;;;;;;;;;;5072254;28;20244;-89
2023/03/07 13:23:40;;;;;;;5.67;4.77;;;;;;;;;;5071320;28;20232;-88
2023/03/07 13:26:14;;;;;;;7.67;4.87;;;;;;;;;;5072073;28;20665;-89
2023/03/07 13:28:45;;;;;;;9.73;7.53;;;;;;;;;;5052152;28;20248;-89
2023/03/07 13:31:29;;;;;;;8.57;6.90;;;;;;;;;;5052349;28;20189;-88
2023/03/07 13:34:17;;;;;;;7.17;6.07;;;;;;;;;;5051715;28;20236;-89
2023/03/07 13:36:45;;;;;;;7.67;5.70;;;;;;;;;;5055125;28;20208;-88
2023/03/07 13:39:27;;;;;;;6.53;5.27;;;;;;;;;;5071618;28;20263;-89
2023/03/07 13:41:55;;;;;;;9.37;6.90;;;;;;;;;;5071656;28;20608;-89
2023/03/07 13:44:38;;;;;;;7.70;6.43;;;;;;;;;;5071375;28;20240;-89
2023/03/07 13:47:05;;;;;;;7.27;5.00;;;;;;;;;;5071824;28;20661;-88
2023/03/07 13:49:44;;;;;;;8.23;6.57;;;;;;;;;;5071317;28;20243;-88
2023/03/07 13:52:29;;;;;;;9.03;6.10;;;;;;;;;;5071879;28;20201;-90
2023/03/07 13:55:18;;;;;;;9.37;6.83;;;;;;;;;;5092128;28;20232;-88
2023/03/07 13:57:46;;;;;;;7.17;5.43;;;;;;;;;;5082207;28;20239;-89
2023/03/07 14:00:24;;;;;;;8.70;6.40;;;;;;;;;;5092208;28;20181;-88
2023/03/07 14:02:52;;;;;;;4.63;4.23;;;;;;;;;;5091600;28;20258;-89
2023/03/07 14:05:19;;;;;;;6.50;5.13;;;;;;;;;;5092236;28;20197;-88
2023/03/07 14:07:50;;;;;;;9.23;6.67;;;;;;;;;;5081947;28;20259;-89
2023/03/07 14:10:19;;;;;;;7.23;5.90;;;;;;;;;;5072725;28;20564;-88
2023/03/07 14:12:56;;;;;;;6.80;5.23;;;;;;;;;;5071359;28;20229;-89
2023/03/07 14:15:25;;;;;;;8.90;6.67;;;;;;;;;;5072140;28;20209;-89
2023/03/07 14:17:59;;;;;;;8.60;6.27;;;;;;;;;;5071002;28;20236;-88
2023/03/07 14:20:29;;;;;;;9.33;6.97;;;;;;;;;;5073924;28;20204;-88
2023/03/07 14:23:02;;;;;;;7.73;6.20;;;;;;;;;;5074215;28;20229;-88
2023/03/07 14:25:32;;;;;;;11.23;6.57;;;;;;;;;;5075557;28;20196;-89
2023/03/07 14:28:01;;;;;;;7.77;6.90;;;;;;;;;;5074167;28;20236;-87
2023/03/07 14:30:29;;;;;;;7.47;6.30;;;;;;;;;;5075420;28;20205;-87
2023/03/07 14:32:56;;;;;;;9.00;6.30;;;;;;;;;;5074374;28;20225;-89
2023/03/07 14:35:33;;;;;;;8.07;6.40;;;;;;;;;;5075208;28;20198;-89
2023/03/07 14:38:00;;;;;;;7.73;6.50;;;;;;;;;;5074180;28;20735;-88
2023/03/07 14:40:31;;;;;;;7.93;6.20;;;;;;;;;;5074976;28;20695;-90
2023/03/07 14:43:15;;;;;;;6.93;6.00;;;;;;;;;;5074776;28;20237;-89
2023/03/07 14:45:48;;;;;;;12.30;6.80;;;;;;;;;;5075013;28;20247;-89
2023/03/07 14:48:22;;;;;;;8.47;6.10;;;;;;;;;;5075213;28;20329;-89
2023/03/07 14:50:50;;;;;;;8.40;6.10;;;;;;;;;;5075687;28;20247;-90
2023/03/07 14:53:19;;;;;;;6.90;5.50;;;;;;;;;;5075404;28;20225;-90
2023/03/07 14:55:48;;;;;;;8.70;7.10;;;;;;;;;;5075543;28;20209;-89
2023/03/07 14:58:18;;;;;;;6.80;5.50;;;;;;;;;;5074124;28;20241;-88
2023/03/07 15:00:46;;;;;;;9.27;6.00;;;;;;;;;;5075140;28;20198;-88
2023/03/07 15:03:14;;;;;;;9.97;7.20;;;;;;;;;;5074673;28;20627;-87
2023/03/07 15:05:48;;;;;;;8.20;6.37;;;;;;;;;;5075144;28;20206;-89
2023/03/07 15:08:19;;;;;;;4.70;3.80;;;;;;;;;;5093953;28;20233;-87
2023/03/07 15:10:47;;;;;;;8.33;6.10;;;;;;;;;;5092453;28;20188;-86
2023/03/07 15:13:20;;;;;;;7.03;4.90;;;;;;;;;;5090982;28;20229;-86
2023/03/07 15:15:51;;;;;;;9.30;5.93;;;;;;;;;;5083592;28;20228;-84
2023/03/07 15:18:21;;;;;;;7.80;6.47;;;;;;;;;;5084673;28;20233;-87
2023/03/07 15:20:49;;;;;;;8.83;5.83;;;;;;;;;;5092212;28;20215;-86
2023/03/07 15:23:20;;;;;;;8.00;5.67;;;;;;;;;;5084077;28;20265;-86
2023/03/07 15:25:48;;;;;;;12.30;7.10;;;;;;;;;;5084416;28;20190;-85
2023/03/07 15:28:19;;;;;;;7.97;6.33;;;;;;;;;;5074718;28;20237;-86
2023/03/07 15:30:49;;;;;;;7.60;6.20;;;;;;;;;;5078808;28;20209;-86
2023/03/07 15:33:21;;;;;;;7.30;5.60;;;;;;;;;;5072983;28;20240;-86
2023/03/07 15:36:06;;;;;;;5.17;4.47;;;;;;;;;;5074728;28;20190;-86
2023/03/07 15:38:34;;;;;;;5.37;4.83;;;;;;;;;;5074100;28;20264;-86
2023/03/07 15:41:01;;;;;;;5.03;4.40;;;;;;;;;;5074325;28;20189;-86
2023/03/07 15:43:29;;;;;;;5.60;5.00;;;;;;;;;;5073316;28;20237;-87
2023/03/07 15:46:02;;;;;;;7.20;4.47;;;;;;;;;;5074215;28;20198;-87
2023/03/07 15:48:34;;;;;;;6.87;4.40;;;;;;;;;;5073183;28;20249;-87
2023/03/07 15:51:05;;;;;;;4.70;4.30;;;;;;;;;;5073687;28;20192;-86
2023/03/07 15:53:32;;;;;;;5.77;4.90;;;;;;;;;;5073049;28;20316;-88
2023/03/07 15:56:01;;;;;;;7.03;5.03;;;;;;;;;;5073826;28;20217;-83
2023/03/07 15:58:29;;;;;;;5.90;4.50;;;;;;;;;;5072524;28;20244;-83
2023/03/07 16:01:06;;;;;;;4.97;4.50;;;;;;;;;;5072570;28;20685;-81
2023/03/07 16:03:34;;;;;;;5.10;4.60;;;;;;;;;;5071699;28;20233;-82
2023/03/07 16:06:01;;;;;;;7.10;5.67;;;;;;;;;;5072524;28;20642;-82
2023/03/07 16:08:29;;;;;;;4.27;3.80;;;;;;;;;;5071828;28;20236;-83
2023/03/07 16:10:58;;;;;;;4.20;3.90;;;;;;;;;;5074275;28;20209;-82
2023/03/07 16:13:28;;;;;;;7.27;5.40;;;;;;;;;;5071559;28;20610;-82